Terminal Aerodrome Forecast
Issued by NWS

Home | Current Version | Previous Version | Text Only | Print | Product List | Glossary On
Versions: 1 2 3 4 5 6 7 8 9 10 11 12 13 14 15 16 17 18 19 20 21 22 23 24 25
000
FTUS42 KGSP 220315 AAC
TAFHKY
TAF AMD
KHKY 220315Z 2203/2224 33003KT 6SM BR VCSH OVC008
     FM220500 00000KT 3SM BR VCSH OVC004
     FM220900 05003KT 1SM -SHRA BR OVC002
     FM221200 06004KT 1/2SM -SHRA FG OVC001
     FM221500 07005KT 3/4SM -SHRA BR OVC002
     FM221900 10005KT 3SM -SHRA OVC008 PROB30 2219/2224 2SM TSRA
      OVC004CB=

USA.gov is the U.S. government's official web portal to all federal, state and local government web resources and services.